Flight Track Log - Related Links

Times and Time Zones

All times are in EDT time to prevent confusion due to time zone crossing. See the SWA1887 flight status page for this flight to view local times or setup timezone preferences in your user account.

Time Position Orientation Groundspeed Altitude Reporting Facility
EDT Latitude Longitude Course Direction KTS MPH feet Rate Location/Type
Sun 02:56:58 PM 32.7833 -96.7667 140° Southeast 214 246 4,400  Level Dallas / Fort Worth TRACON
Sun 02:57:52 PM 32.7500 -96.7167 128° Southeast 243 280 7,500 2,765 Climbing Dallas / Fort Worth TRACON
Sun 02:58:53 PM 32.8167 -96.6833 23° Northeast 287 330 9,700 2,660 Climbing Dallas / Fort Worth TRACON
Sun 03:01:06 PM 33.0175 -96.7619 342° North 373 429 16,100 3,078 Climbing Fort Worth Center
Sun 03:02:06 PM 33.1264 -96.8106 340° North 373 429 19,600 3,150 Climbing Fort Worth Center
Sun 03:03:06 PM 33.2247 -96.8572 338° Northwest 378 435 22,400 2,600 Climbing Fort Worth Center
Sun 03:04:06 PM 33.3311 -96.9039 340° North 386 444 24,800 2,300 Climbing Fort Worth Center
Sun 03:05:06 PM 33.4378 -96.9531 339° North 397 457 27,000 2,550 Climbing Fort Worth Center
Sun 03:06:06 PM 33.5547 -96.9275 10° North 397 457 29,900 2,550 Climbing Fort Worth Center
Sun 03:07:06 PM 33.6692 -96.8794 19° North 413 475 32,100 1,550 Climbing Fort Worth Center
Sun 03:08:06 PM 33.7858 -96.8311 19° North 424 488 33,000 450 Climbing Fort Worth Center
Sun 03:09:06 PM 33.8983 -96.7878 18° North 424 488 33,000  Level Fort Worth Center
Sun 03:10:06 PM 34.0131 -96.7419 18° North 429 494 33,000  Level Fort Worth Center
Sun 03:11:06 PM 34.1086 -96.7011 19° North 421 484 33,000  Level Fort Worth Center
Sun 03:12:06 PM 34.2253 -96.6575 17° North 421 484 33,000  Level Fort Worth Center
Sun 03:13:06 PM 34.3378 -96.6111 19° North 421 484 33,000  Level Fort Worth Center
Sun 03:14:06 PM 34.4500 -96.5622 20° North 426 490 33,000  Level Fort Worth Center
Sun 03:15:06 PM 34.5667 -96.5133 19° North 426 490 33,000 -50 Level Fort Worth Center
Sun 03:16:06 PM 34.6808 -96.4642 19° North 426 490 32,900 -550 Descending Fort Worth Center
Sun 03:17:06 PM 34.7975 -96.4122 20° North 431 496 31,900 -950 Descending Fort Worth Center
Sun 03:18:06 PM 34.9139 -96.3603 20° North 431 496 31,000 -950 Descending Fort Worth Center
Sun 03:19:06 PM 35.0322 -96.3081 20° North 443 510 30,000 -1,350 Descending Fort Worth Center
Sun 03:20:06 PM 35.1464 -96.2583 20° North 443 510 28,300 -2,150 Descending Fort Worth Center
Sun 03:21:06 PM 35.2628 -96.2083 19° North 443 510 25,700 -2,758 Descending Fort Worth Center
Sun 03:23:24 PM 35.5264 -96.0881 20° North 425 489 19,200 -2,806 Descending Kansas City Center
Sun 03:24:27 PM 35.6425 -96.0533 14° North 413 475 16,300 -2,914 Descending Kansas City Center
Sun 03:25:09 PM 35.7239 -96.0428 North 396 456 14,100 -3,100 Descending Kansas City Center
Sun 03:25:27 PM 35.7514 -96.0344 14° North 399 459 13,200 -2,951 Descending Kansas City Center
Sun 03:26:10 PM 35.8294 -96.0267 North 387 445 11,100 -2,531 Descending Kansas City Center
Sun 03:26:31 PM 35.8586 -96.0283 357° North 387 445 10,500 -1,100 Descending Kansas City Center
Sun 03:27:10 PM 35.9308 -96.0344 356° North 350 403 10,000 -600 Descending Kansas City Center
Sun 03:27:31 PM 35.9553 -96.0364 356° North 358 412 9,900 -1,433 Descending Kansas City Center
Sun 03:28:17 PM 36.0183 -96.0542 347° North 279 321 8,400 -1,967 Descending Kansas City Center
Sun 03:28:32 PM 36.0333 -96.0583 347° North 300 345 7,900 -1,967 Descending Kansas City Center
Sun 03:29:18 PM 36.0967 -96.0622 357° North 286 329 6,400 -1,781 Descending Kansas City Center
Sun 03:29:36 PM 36.1131 -96.0544 21° North 293 337 6,000 -2,400 Descending Kansas City Center
Sun 03:30:18 PM 36.1672 -96.0275 22° Northeast 264 304 4,000 -2,200 Descending Kansas City Center
Sun 03:30:36 PM 36.1825 -96.0203 21° North 273 314 3,800 -387 Descending Kansas City Center
Sun 03:31:20 PM 36.2014 -95.9842 57° Northeast 150 173 3,600 -484 Descending Kansas City Center
Sun 03:31:38 PM 36.1975 -95.9789 132° Southeast 190 219 3,300 -1,800 Descending Kansas City Center
Sun 03:32:20 PM 36.1978 -95.9433 89° East 129 148 1,800 -1,905 Descending Kansas City Center
Sun 03:32:41 PM 36.1967 -95.9261 95° East 154 177 1,300 -805 Descending Kansas City Center
Sun 03:33:42 PM 36.1956 -95.8869 92° East 145 167 700 -590 Descending Kansas City Center
Sun 03:35:00 PM 36.1984 -95.8881 North  Level Estimated
Sun 03:42:00 PM 36.1984 -95.8881 North  Level Estimated

Login

Don't have an account? Register now (free) for customized features, flight alerts, and more!